CheckWX is a tool to help pilots better visualize weather data.  It is not intended as a substitute for an official pre-flight weather briefing.

19:24:13 UTC

KFSI METAR
Henry Post AAF (Fort Sill) Airport
Fort Sill, Oklahoma, USA
Current

28 mins ago

KFSI 201856Z AUTO 19017G24KT 10SM BKN027 22/16 A2977 RMK AO2 PK WND 19027/27 SLP076 T02180163
Observed
Nov-20 @ 18:56 UTC
Wind
  • 190° at 17 KTS
  • Gusting to 24 KTS
Visibility
10 SM
Flight Rules
MVFR
Cloud Levels
  • Broken at 2,700' AGL
Temperature
22°C / 72°F
Dewpoint
16°C / 61°F
Humidity
69%
Altimeter
29.77" Hg
Pressure
1008.12 hPa
Previous

1 hour ago

KFSI 201756Z AUTO 17020G25KT 10SM OVC020 20/16 A2980 RMK AO2 SLP086 60000 T02040160 10205 20136
Observed
Nov-20 @ 17:56 UTC
Wind
  • 170° at 20 KTS
  • Gusting to 25 KTS
Visibility
10 SM
Flight Rules
MVFR
Cloud Levels
  • Overcast at 2,000' AGL
Temperature
20°C / 68°F
Dewpoint
16°C / 61°F
Humidity
78%
Altimeter
29.8" Hg
Pressure
1009.12 hPa
Previous

2 hours ago

KFSI 201722Z AUTO 16015G22KT 10SM OVC016 19/16 A2982 RMK AO2 SLP093
Observed
Nov-20 @ 17:22 UTC
Wind
  • 160° at 15 KTS
  • Gusting to 22 KTS
Visibility
10 SM
Flight Rules
MVFR
Cloud Levels
  • Overcast at 1,600' AGL
Temperature
19°C / 66°F
Dewpoint
16°C / 61°F
Humidity
83%
Altimeter
29.82" Hg
Pressure
1009.82 hPa